sensor_id;sensor_type;location;lat;lon;timestamp;temperature;humidity
43695;DHT22;29300;43.560;1.294;2022-10-17T00:00:26;19.80;99.90
43695;DHT22;29300;43.560;1.294;2022-10-17T00:02:54;19.80;99.90
43695;DHT22;29300;43.560;1.294;2022-10-17T00:05:20;19.90;99.90
43695;DHT22;29300;43.560;1.294;2022-10-17T00:07:46;19.90;99.90
43695;DHT22;29300;43.560;1.294;2022-10-17T00:10:12;19.90;99.90
43695;DHT22;29300;43.560;1.294;2022-10-17T00:12:38;19.90;99.90
43695;DHT22;29300;43.560;1.294;2022-10-17T00:15:05;19.90;99.90
43695;DHT22;29300;43.560;1.294;2022-10-17T00:17:31;19.90;99.90
43695;DHT22;29300;43.560;1.294;2022-10-17T00:19:59;19.90;99.90
43695;DHT22;29300;43.560;1.294;2022-10-17T00:22:26;19.90;99.90
43695;DHT22;29300;43.560;1.294;2022-10-17T00:24:52;19.90;99.90
43695;DHT22;29300;43.560;1.294;2022-10-17T00:27:18;19.90;99.90
43695;DHT22;29300;43.560;1.294;2022-10-17T00:29:48;19.90;99.90
43695;DHT22;29300;43.560;1.294;2022-10-17T00:32:14;19.90;99.90
43695;DHT22;29300;43.560;1.294;2022-10-17T00:34:40;19.90;99.90
43695;DHT22;29300;43.560;1.294;2022-10-17T00:37:06;19.90;99.90
43695;DHT22;29300;43.560;1.294;2022-10-17T00:39:32;19.90;99.90
43695;DHT22;29300;43.560;1.294;2022-10-17T00:41:57;19.90;99.90
43695;DHT22;29300;43.560;1.294;2022-10-17T00:47:08;19.90;99.90
43695;DHT22;29300;43.560;1.294;2022-10-17T00:49:36;19.90;99.90
43695;DHT22;29300;43.560;1.294;2022-10-17T00:52:07;19.90;99.90
43695;DHT22;29300;43.560;1.294;2022-10-17T00:54:38;19.80;99.90
43695;DHT22;29300;43.560;1.294;2022-10-17T00:57:05;19.90;99.90
43695;DHT22;29300;43.560;1.294;2022-10-17T00:59:37;19.90;99.90
43695;DHT22;29300;43.560;1.294;2022-10-17T01:02:06;19.90;99.90
43695;DHT22;29300;43.560;1.294;2022-10-17T01:04:33;19.90;99.90
43695;DHT22;29300;43.560;1.294;2022-10-17T01:06:59;19.90;99.90
43695;DHT22;29300;43.560;1.294;2022-10-17T01:09:25;19.90;99.90
43695;DHT22;29300;43.560;1.294;2022-10-17T01:12:04;19.90;99.90
43695;DHT22;29300;43.560;1.294;2022-10-17T01:14:38;19.90;99.90
43695;DHT22;29300;43.560;1.294;2022-10-17T01:28:30;19.90;99.90
43695;DHT22;29300;43.560;1.294;2022-10-17T01:42:16;20.00;99.90
43695;DHT22;29300;43.560;1.294;2022-10-17T01:44:54;20.00;99.90
43695;DHT22;29300;43.560;1.294;2022-10-17T01:47:24;20.00;99.90
43695;DHT22;29300;43.560;1.294;2022-10-17T01:49:53;20.00;99.90
43695;DHT22;29300;43.560;1.294;2022-10-17T01:52:26;20.00;99.90
43695;DHT22;29300;43.560;1.294;2022-10-17T01:54:57;20.00;99.90
43695;DHT22;29300;43.560;1.294;2022-10-17T01:57:28;20.00;99.90
43695;DHT22;29300;43.560;1.294;2022-10-17T01:59:55;20.00;99.90
43695;DHT22;29300;43.560;1.294;2022-10-17T02:02:23;20.00;99.90
43695;DHT22;29300;43.560;1.294;2022-10-17T02:04:50;20.10;99.90
43695;DHT22;29300;43.560;1.294;2022-10-17T02:07:16;20.10;99.90
43695;DHT22;29300;43.560;1.294;2022-10-17T02:09:42;20.10;99.90
43695;DHT22;29300;43.560;1.294;2022-10-17T02:12:38;20.00;99.90
43695;DHT22;29300;43.560;1.294;2022-10-17T02:18:44;20.00;99.90
43695;DHT22;29300;43.560;1.294;2022-10-17T02:23:51;20.10;99.90
43695;DHT22;29300;43.560;1.294;2022-10-17T02:26:33;20.10;99.90
43695;DHT22;29300;43.560;1.294;2022-10-17T02:29:14;20.10;99.90
43695;DHT22;29300;43.560;1.294;2022-10-17T02:31:55;20.10;99.90
43695;DHT22;29300;43.560;1.294;2022-10-17T02:34:44;20.10;99.90
43695;DHT22;29300;43.560;1.294;2022-10-17T02:37:14;20.10;99.90
43695;DHT22;29300;43.560;1.294;2022-10-17T02:39:43;20.10;99.90
43695;DHT22;29300;43.560;1.294;2022-10-17T02:42:10;20.10;99.90
43695;DHT22;29300;43.560;1.294;2022-10-17T02:44:39;20.10;99.90
43695;DHT22;29300;43.560;1.294;2022-10-17T02:47:22;20.10;99.90
43695;DHT22;29300;43.560;1.294;2022-10-17T02:49:51;20.20;99.90
43695;DHT22;29300;43.560;1.294;2022-10-17T02:52:45;20.10;99.90
43695;DHT22;29300;43.560;1.294;2022-10-17T02:57:50;20.10;99.90
43695;DHT22;29300;43.560;1.294;2022-10-17T03:00:18;20.10;99.90
43695;DHT22;29300;43.560;1.294;2022-10-17T03:02:46;20.10;99.90
43695;DHT22;29300;43.560;1.294;2022-10-17T03:05:15;20.10;99.90
43695;DHT22;29300;43.560;1.294;2022-10-17T03:07:41;20.00;99.90
43695;DHT22;29300;43.560;1.294;2022-10-17T03:10:07;20.00;99.90
43695;DHT22;29300;43.560;1.294;2022-10-17T03:12:32;20.10;99.90
43695;DHT22;29300;43.560;1.294;2022-10-17T03:14:58;20.00;99.90
43695;DHT22;29300;43.560;1.294;2022-10-17T03:17:24;20.10;99.90
43695;DHT22;29300;43.560;1.294;2022-10-17T03:19:50;20.10;99.90
43695;DHT22;29300;43.560;1.294;2022-10-17T03:22:15;20.00;99.90
43695;DHT22;29300;43.560;1.294;2022-10-17T03:24:41;20.00;99.90
43695;DHT22;29300;43.560;1.294;2022-10-17T03:27:07;20.00;99.90
43695;DHT22;29300;43.560;1.294;2022-10-17T03:29:32;20.00;99.90
43695;DHT22;29300;43.560;1.294;2022-10-17T03:31:58;20.00;99.90
43695;DHT22;29300;43.560;1.294;2022-10-17T03:34:24;20.00;99.90
43695;DHT22;29300;43.560;1.294;2022-10-17T03:36:50;20.00;99.90
43695;DHT22;29300;43.560;1.294;2022-10-17T03:39:15;20.00;99.90
43695;DHT22;29300;43.560;1.294;2022-10-17T03:41:41;20.00;99.90
43695;DHT22;29300;43.560;1.294;2022-10-17T03:44:07;20.00;99.90
43695;DHT22;29300;43.560;1.294;2022-10-17T03:46:32;20.00;99.90
43695;DHT22;29300;43.560;1.294;2022-10-17T03:48:58;20.00;99.90
43695;DHT22;29300;43.560;1.294;2022-10-17T03:51:24;19.90;99.90
43695;DHT22;29300;43.560;1.294;2022-10-17T03:53:50;19.90;99.90
43695;DHT22;29300;43.560;1.294;2022-10-17T03:56:18;19.90;99.90
43695;DHT22;29300;43.560;1.294;2022-10-17T03:58:44;19.90;99.90
43695;DHT22;29300;43.560;1.294;2022-10-17T04:01:12;19.80;99.90
43695;DHT22;29300;43.560;1.294;2022-10-17T04:03:38;19.90;99.90
43695;DHT22;29300;43.560;1.294;2022-10-17T04:06:05;19.90;99.90
43695;DHT22;29300;43.560;1.294;2022-10-17T04:08:31;19.80;99.90
43695;DHT22;29300;43.560;1.294;2022-10-17T04:10:58;19.80;99.90
43695;DHT22;29300;43.560;1.294;2022-10-17T04:13:24;19.70;99.90
43695;DHT22;29300;43.560;1.294;2022-10-17T04:15:54;19.70;99.90
43695;DHT22;29300;43.560;1.294;2022-10-17T04:18:20;19.70;99.90
43695;DHT22;29300;43.560;1.294;2022-10-17T04:20:46;19.70;99.90
43695;DHT22;29300;43.560;1.294;2022-10-17T04:23:11;19.70;99.90
43695;DHT22;29300;43.560;1.294;2022-10-17T04:25:37;19.70;99.90
43695;DHT22;29300;43.560;1.294;2022-10-17T04:28:03;19.70;99.90
43695;DHT22;29300;43.560;1.294;2022-10-17T04:30:28;19.70;99.90
43695;DHT22;29300;43.560;1.294;2022-10-17T04:32:54;19.70;99.90
43695;DHT22;29300;43.560;1.294;2022-10-17T04:35:20;19.80;99.90
43695;DHT22;29300;43.560;1.294;2022-10-17T04:37:46;19.80;99.90
43695;DHT22;29300;43.560;1.294;2022-10-17T04:40:12;19.70;99.90
43695;DHT22;29300;43.560;1.294;2022-10-17T04:42:37;19.70;99.90
43695;DHT22;29300;43.560;1.294;2022-10-17T04:45:04;19.80;99.90
43695;DHT22;29300;43.560;1.294;2022-10-17T04:47:30;19.80;99.90
43695;DHT22;29300;43.560;1.294;2022-10-17T04:49:55;19.80;99.90
43695;DHT22;29300;43.560;1.294;2022-10-17T04:52:21;19.80;99.90
43695;DHT22;29300;43.560;1.294;2022-10-17T04:54:47;19.70;99.90
43695;DHT22;29300;43.560;1.294;2022-10-17T04:57:13;19.80;99.90
43695;DHT22;29300;43.560;1.294;2022-10-17T04:59:39;19.80;99.90
43695;DHT22;29300;43.560;1.294;2022-10-17T05:02:04;19.70;99.90
43695;DHT22;29300;43.560;1.294;2022-10-17T05:04:30;19.70;99.90
43695;DHT22;29300;43.560;1.294;2022-10-17T05:06:56;19.70;99.90
43695;DHT22;29300;43.560;1.294;2022-10-17T05:09:21;19.80;99.90
43695;DHT22;29300;43.560;1.294;2022-10-17T05:11:47;19.80;99.90
43695;DHT22;29300;43.560;1.294;2022-10-17T05:14:14;19.80;99.90
43695;DHT22;29300;43.560;1.294;2022-10-17T05:16:40;19.80;99.90
43695;DHT22;29300;43.560;1.294;2022-10-17T05:19:05;19.80;99.90
43695;DHT22;29300;43.560;1.294;2022-10-17T05:21:31;19.80;99.90
43695;DHT22;29300;43.560;1.294;2022-10-17T05:23:57;19.70;99.90
43695;DHT22;29300;43.560;1.294;2022-10-17T05:26:23;19.70;99.90
43695;DHT22;29300;43.560;1.294;2022-10-17T05:28:49;19.70;99.90
43695;DHT22;29300;43.560;1.294;2022-10-17T05:31:17;19.80;99.90
43695;DHT22;29300;43.560;1.294;2022-10-17T05:33:43;19.80;99.90
43695;DHT22;29300;43.560;1.294;2022-10-17T05:36:09;19.80;99.90
43695;DHT22;29300;43.560;1.294;2022-10-17T05:38:35;19.80;99.90
43695;DHT22;29300;43.560;1.294;2022-10-17T05:41:02;19.80;99.90
43695;DHT22;29300;43.560;1.294;2022-10-17T05:43:29;19.70;99.90
43695;DHT22;29300;43.560;1.294;2022-10-17T05:45:54;19.80;99.90
43695;DHT22;29300;43.560;1.294;2022-10-17T05:48:21;19.70;99.90
43695;DHT22;29300;43.560;1.294;2022-10-17T05:50:47;19.70;99.90
43695;DHT22;29300;43.560;1.294;2022-10-17T05:53:13;19.70;99.90
43695;DHT22;29300;43.560;1.294;2022-10-17T05:55:39;19.70;99.90
43695;DHT22;29300;43.560;1.294;2022-10-17T05:58:05;19.70;99.90
43695;DHT22;29300;43.560;1.294;2022-10-17T06:00:30;19.70;99.90
43695;DHT22;29300;43.560;1.294;2022-10-17T06:02:56;19.70;99.90
43695;DHT22;29300;43.560;1.294;2022-10-17T06:05:22;19.70;99.90
43695;DHT22;29300;43.560;1.294;2022-10-17T06:07:47;19.70;99.90
43695;DHT22;29300;43.560;1.294;2022-10-17T06:10:18;19.60;99.90
43695;DHT22;29300;43.560;1.294;2022-10-17T06:12:44;19.60;99.90
43695;DHT22;29300;43.560;1.294;2022-10-17T06:15:11;19.60;99.90
43695;DHT22;29300;43.560;1.294;2022-10-17T06:17:37;19.60;99.90
43695;DHT22;29300;43.560;1.294;2022-10-17T06:20:03;19.60;99.90
43695;DHT22;29300;43.560;1.294;2022-10-17T06:22:29;19.60;99.90
43695;DHT22;29300;43.560;1.294;2022-10-17T06:24:54;19.60;99.90
43695;DHT22;29300;43.560;1.294;2022-10-17T06:27:20;19.60;99.90
43695;DHT22;29300;43.560;1.294;2022-10-17T06:29:46;19.60;99.90
43695;DHT22;29300;43.560;1.294;2022-10-17T06:32:13;19.60;99.90
43695;DHT22;29300;43.560;1.294;2022-10-17T06:34:38;19.60;99.90
43695;DHT22;29300;43.560;1.294;2022-10-17T06:37:04;19.60;99.90
43695;DHT22;29300;43.560;1.294;2022-10-17T06:39:30;19.60;99.90
43695;DHT22;29300;43.560;1.294;2022-10-17T06:41:59;19.60;99.90
43695;DHT22;29300;43.560;1.294;2022-10-17T06:44:25;19.70;99.90
43695;DHT22;29300;43.560;1.294;2022-10-17T06:46:55;19.70;99.90
43695;DHT22;29300;43.560;1.294;2022-10-17T06:49:21;19.80;99.90
43695;DHT22;29300;43.560;1.294;2022-10-17T06:51:46;19.80;99.90
43695;DHT22;29300;43.560;1.294;2022-10-17T06:54:12;19.90;99.90
43695;DHT22;29300;43.560;1.294;2022-10-17T06:56:38;20.00;99.90
43695;DHT22;29300;43.560;1.294;2022-10-17T06:59:03;20.10;99.90
43695;DHT22;29300;43.560;1.294;2022-10-17T07:01:30;20.10;99.90
43695;DHT22;29300;43.560;1.294;2022-10-17T07:03:56;20.20;99.90
43695;DHT22;29300;43.560;1.294;2022-10-17T07:06:21;20.30;99.90
43695;DHT22;29300;43.560;1.294;2022-10-17T07:08:49;20.50;99.90
43695;DHT22;29300;43.560;1.294;2022-10-17T07:11:18;20.80;99.90
43695;DHT22;29300;43.560;1.294;2022-10-17T07:13:44;21.10;99.90
43695;DHT22;29300;43.560;1.294;2022-10-17T07:16:10;21.40;99.90
43695;DHT22;29300;43.560;1.294;2022-10-17T07:18:36;21.30;99.90
43695;DHT22;29300;43.560;1.294;2022-10-17T07:21:02;21.20;99.90
43695;DHT22;29300;43.560;1.294;2022-10-17T07:23:28;21.30;99.90
43695;DHT22;29300;43.560;1.294;2022-10-17T07:26:01;21.30;99.90
43695;DHT22;29300;43.560;1.294;2022-10-17T07:28:27;21.20;99.90
43695;DHT22;29300;43.560;1.294;2022-10-17T07:30:53;21.20;99.90
43695;DHT22;29300;43.560;1.294;2022-10-17T07:33:19;21.20;99.90
43695;DHT22;29300;43.560;1.294;2022-10-17T07:35:45;21.30;99.90
43695;DHT22;29300;43.560;1.294;2022-10-17T07:38:11;21.30;99.90
43695;DHT22;29300;43.560;1.294;2022-10-17T07:40:36;21.20;99.90
43695;DHT22;29300;43.560;1.294;2022-10-17T07:43:02;21.20;99.90
43695;DHT22;29300;43.560;1.294;2022-10-17T07:45:28;21.40;99.90
43695;DHT22;29300;43.560;1.294;2022-10-17T07:47:56;21.50;99.90
43695;DHT22;29300;43.560;1.294;2022-10-17T07:50:22;21.60;99.90
43695;DHT22;29300;43.560;1.294;2022-10-17T07:52:48;21.60;99.90
43695;DHT22;29300;43.560;1.294;2022-10-17T07:55:14;21.40;99.90
43695;DHT22;29300;43.560;1.294;2022-10-17T07:57:39;21.40;99.90
43695;DHT22;29300;43.560;1.294;2022-10-17T08:00:07;21.30;99.90
43695;DHT22;29300;43.560;1.294;2022-10-17T08:02:33;21.30;99.90
43695;DHT22;29300;43.560;1.294;2022-10-17T08:04:58;21.20;99.90
43695;DHT22;29300;43.560;1.294;2022-10-17T08:07:24;21.20;99.90
43695;DHT22;29300;43.560;1.294;2022-10-17T08:09:49;21.30;99.90
43695;DHT22;29300;43.560;1.294;2022-10-17T08:12:15;21.30;99.90
43695;DHT22;29300;43.560;1.294;2022-10-17T08:14:41;21.50;99.90
43695;DHT22;29300;43.560;1.294;2022-10-17T08:17:08;21.80;99.90
43695;DHT22;29300;43.560;1.294;2022-10-17T08:19:36;22.10;99.90
43695;DHT22;29300;43.560;1.294;2022-10-17T08:22:02;22.40;99.90
43695;DHT22;29300;43.560;1.294;2022-10-17T08:24:28;22.70;99.90
43695;DHT22;29300;43.560;1.294;2022-10-17T08:26:53;23.00;99.90
43695;DHT22;29300;43.560;1.294;2022-10-17T08:29:20;23.30;99.90
43695;DHT22;29300;43.560;1.294;2022-10-17T08:31:46;23.70;99.90
43695;DHT22;29300;43.560;1.294;2022-10-17T08:34:11;23.60;99.90
43695;DHT22;29300;43.560;1.294;2022-10-17T08:36:37;23.10;99.90
43695;DHT22;29300;43.560;1.294;2022-10-17T08:39:03;22.60;99.90
43695;DHT22;29300;43.560;1.294;2022-10-17T08:47:03;21.80;99.90
43695;DHT22;29300;43.560;1.294;2022-10-17T08:49:52;21.70;99.90
43695;DHT22;29300;43.560;1.294;2022-10-17T08:54:51;21.60;99.90
43695;DHT22;29300;43.560;1.294;2022-10-17T08:57:17;21.50;99.90
43695;DHT22;29300;43.560;1.294;2022-10-17T08:59:44;21.50;99.90
43695;DHT22;29300;43.560;1.294;2022-10-17T09:18:35;21.60;99.90
43695;DHT22;29300;43.560;1.294;2022-10-17T09:21:26;21.70;99.90
43695;DHT22;29300;43.560;1.294;2022-10-17T09:24:00;21.60;99.90
43695;DHT22;29300;43.560;1.294;2022-10-17T09:26:28;21.60;99.90
43695;DHT22;29300;43.560;1.294;2022-10-17T09:28:58;21.60;99.90
43695;DHT22;29300;43.560;1.294;2022-10-17T09:31:29;21.60;99.90
43695;DHT22;29300;43.560;1.294;2022-10-17T09:34:00;21.70;99.90
43695;DHT22;29300;43.560;1.294;2022-10-17T09:36:29;21.70;99.90
43695;DHT22;29300;43.560;1.294;2022-10-17T09:39:00;21.70;99.90
43695;DHT22;29300;43.560;1.294;2022-10-17T09:41:38;21.70;99.90
43695;DHT22;29300;43.560;1.294;2022-10-17T09:44:14;21.80;99.90
43695;DHT22;29300;43.560;1.294;2022-10-17T09:46:42;21.70;99.90
43695;DHT22;29300;43.560;1.294;2022-10-17T09:49:21;21.70;99.90
43695;DHT22;29300;43.560;1.294;2022-10-17T09:51:50;21.70;99.90
43695;DHT22;29300;43.560;1.294;2022-10-17T09:54:22;21.70;99.90
43695;DHT22;29300;43.560;1.294;2022-10-17T09:57:00;21.70;99.90
43695;DHT22;29300;43.560;1.294;2022-10-17T09:59:37;21.70;99.90
43695;DHT22;29300;43.560;1.294;2022-10-17T10:04:58;21.70;99.90
43695;DHT22;29300;43.560;1.294;2022-10-17T10:07:25;21.70;99.90
43695;DHT22;29300;43.560;1.294;2022-10-17T10:09:52;21.60;99.90
43695;DHT22;29300;43.560;1.294;2022-10-17T10:12:30;21.60;99.90
43695;DHT22;29300;43.560;1.294;2022-10-17T10:14:56;21.60;99.90
43695;DHT22;29300;43.560;1.294;2022-10-17T10:17:41;21.50;99.90
43695;DHT22;29300;43.560;1.294;2022-10-17T10:20:30;21.50;99.90
43695;DHT22;29300;43.560;1.294;2022-10-17T10:23:17;21.50;99.90
43695;DHT22;29300;43.560;1.294;2022-10-17T10:28:19;21.60;99.90
43695;DHT22;29300;43.560;1.294;2022-10-17T10:30:50;21.60;99.90
43695;DHT22;29300;43.560;1.294;2022-10-17T10:33:19;21.50;99.90
43695;DHT22;29300;43.560;1.294;2022-10-17T10:36:10;21.50;99.90
43695;DHT22;29300;43.560;1.294;2022-10-17T10:38:39;21.50;99.90
43695;DHT22;29300;43.560;1.294;2022-10-17T10:41:08;21.50;99.90
43695;DHT22;29300;43.560;1.294;2022-10-17T10:43:38;21.40;99.90
43695;DHT22;29300;43.560;1.294;2022-10-17T10:46:16;21.40;99.90
43695;DHT22;29300;43.560;1.294;2022-10-17T10:48:53;21.40;99.90
43695;DHT22;29300;43.560;1.294;2022-10-17T10:51:41;21.40;99.90
43695;DHT22;29300;43.560;1.294;2022-10-17T10:54:21;21.40;99.90
43695;DHT22;29300;43.560;1.294;2022-10-17T10:56:52;21.40;99.90
43695;DHT22;29300;43.560;1.294;2022-10-17T10:59:23;21.40;99.90
43695;DHT22;29300;43.560;1.294;2022-10-17T11:07:02;21.50;99.90
43695;DHT22;29300;43.560;1.294;2022-10-17T11:09:57;21.50;99.90
43695;DHT22;29300;43.560;1.294;2022-10-17T11:12:32;21.50;99.90
43695;DHT22;29300;43.560;1.294;2022-10-17T11:15:13;21.50;99.90
43695;DHT22;29300;43.560;1.294;2022-10-17T11:17:45;21.60;99.90
43695;DHT22;29300;43.560;1.294;2022-10-17T11:25:50;21.70;99.90
43695;DHT22;29300;43.560;1.294;2022-10-17T11:28:19;21.70;99.90
43695;DHT22;29300;43.560;1.294;2022-10-17T11:31:03;21.70;99.90
43695;DHT22;29300;43.560;1.294;2022-10-17T11:34:52;21.70;99.90
43695;DHT22;29300;43.560;1.294;2022-10-17T11:36:50;22.00;99.90
43695;DHT22;29300;43.560;1.294;2022-10-17T11:39:25;22.40;99.90
43695;DHT22;29300;43.560;1.294;2022-10-17T11:41:58;22.60;99.90
43695;DHT22;29300;43.560;1.294;2022-10-17T11:44:31;22.80;99.90
43695;DHT22;29300;43.560;1.294;2022-10-17T11:50:21;23.20;99.90
43695;DHT22;29300;43.560;1.294;2022-10-17T11:52:55;23.10;99.90
43695;DHT22;29300;43.560;1.294;2022-10-17T11:55:26;23.20;99.90
43695;DHT22;29300;43.560;1.294;2022-10-17T12:08:53;23.30;99.90
43695;DHT22;29300;43.560;1.294;2022-10-17T12:17:34;23.30;99.90
43695;DHT22;29300;43.560;1.294;2022-10-17T12:25:25;23.70;99.90
43695;DHT22;29300;43.560;1.294;2022-10-17T12:30:32;23.80;99.90
43695;DHT22;29300;43.560;1.294;2022-10-17T12:34:03;23.90;99.90
43695;DHT22;29300;43.560;1.294;2022-10-17T12:41:52;24.00;99.90
43695;DHT22;29300;43.560;1.294;2022-10-17T12:59:47;24.10;99.90
43695;DHT22;29300;43.560;1.294;2022-10-17T13:02:20;24.20;99.90
43695;DHT22;29300;43.560;1.294;2022-10-17T13:04:47;24.10;99.90
43695;DHT22;29300;43.560;1.294;2022-10-17T13:07:20;24.00;99.90
43695;DHT22;29300;43.560;1.294;2022-10-17T13:09:47;24.00;99.90
43695;DHT22;29300;43.560;1.294;2022-10-17T13:12:19;24.00;99.90
43695;DHT22;29300;43.560;1.294;2022-10-17T13:14:49;24.10;99.90
43695;DHT22;29300;43.560;1.294;2022-10-17T13:17:27;24.00;99.90
43695;DHT22;29300;43.560;1.294;2022-10-17T13:19:54;24.00;99.90
43695;DHT22;29300;43.560;1.294;2022-10-17T13:22:21;23.90;99.90
43695;DHT22;29300;43.560;1.294;2022-10-17T13:24:48;23.90;99.90
43695;DHT22;29300;43.560;1.294;2022-10-17T13:27:32;23.90;99.90
43695;DHT22;29300;43.560;1.294;2022-10-17T13:29:59;23.90;99.90
43695;DHT22;29300;43.560;1.294;2022-10-17T13:32:34;23.80;99.90
43695;DHT22;29300;43.560;1.294;2022-10-17T13:35:15;23.70;99.90
43695;DHT22;29300;43.560;1.294;2022-10-17T13:37:45;23.80;99.90
43695;DHT22;29300;43.560;1.294;2022-10-17T13:40:19;23.90;99.90
43695;DHT22;29300;43.560;1.294;2022-10-17T13:42:46;23.90;99.90
43695;DHT22;29300;43.560;1.294;2022-10-17T13:47:56;24.00;99.90
43695;DHT22;29300;43.560;1.294;2022-10-17T13:50:26;23.90;99.90
43695;DHT22;29300;43.560;1.294;2022-10-17T13:53:19;24.00;99.90
43695;DHT22;29300;43.560;1.294;2022-10-17T13:55:57;24.00;99.90
43695;DHT22;29300;43.560;1.294;2022-10-17T13:58:24;24.10;99.90
43695;DHT22;29300;43.560;1.294;2022-10-17T14:00:50;24.10;99.90
43695;DHT22;29300;43.560;1.294;2022-10-17T14:03:19;24.00;99.90
43695;DHT22;29300;43.560;1.294;2022-10-17T14:06:03;24.00;99.90
43695;DHT22;29300;43.560;1.294;2022-10-17T14:08:31;24.00;99.90
43695;DHT22;29300;43.560;1.294;2022-10-17T14:10:58;23.90;99.90
43695;DHT22;29300;43.560;1.294;2022-10-17T14:13:30;24.00;99.90
43695;DHT22;29300;43.560;1.294;2022-10-17T14:16:01;24.10;99.90
43695;DHT22;29300;43.560;1.294;2022-10-17T14:18:32;23.90;99.90
43695;DHT22;29300;43.560;1.294;2022-10-17T14:20:58;23.90;99.90
43695;DHT22;29300;43.560;1.294;2022-10-17T14:23:34;23.80;99.90
43695;DHT22;29300;43.560;1.294;2022-10-17T14:28:33;23.80;99.90
43695;DHT22;29300;43.560;1.294;2022-10-17T14:33:47;23.90;99.90
43695;DHT22;29300;43.560;1.294;2022-10-17T14:36:13;23.90;99.90
43695;DHT22;29300;43.560;1.294;2022-10-17T14:38:47;23.90;99.90
43695;DHT22;29300;43.560;1.294;2022-10-17T14:41:22;23.90;99.90
43695;DHT22;29300;43.560;1.294;2022-10-17T14:44:03;23.80;99.90
43695;DHT22;29300;43.560;1.294;2022-10-17T14:46:31;23.80;99.90
43695;DHT22;29300;43.560;1.294;2022-10-17T14:49:15;23.80;99.90
43695;DHT22;29300;43.560;1.294;2022-10-17T14:52:08;23.80;99.90
43695;DHT22;29300;43.560;1.294;2022-10-17T14:54:35;23.70;99.90
43695;DHT22;29300;43.560;1.294;2022-10-17T14:57:08;23.70;99.90
43695;DHT22;29300;43.560;1.294;2022-10-17T14:59:39;23.60;99.90
43695;DHT22;29300;43.560;1.294;2022-10-17T15:02:04;23.70;99.90
43695;DHT22;29300;43.560;1.294;2022-10-17T15:04:30;23.60;99.90
43695;DHT22;29300;43.560;1.294;2022-10-17T15:06:56;23.70;99.90
43695;DHT22;29300;43.560;1.294;2022-10-17T15:09:21;23.60;99.90
43695;DHT22;29300;43.560;1.294;2022-10-17T15:11:48;23.60;99.90
43695;DHT22;29300;43.560;1.294;2022-10-17T15:14:14;23.60;99.90
43695;DHT22;29300;43.560;1.294;2022-10-17T15:16:40;23.50;99.90
43695;DHT22;29300;43.560;1.294;2022-10-17T15:19:05;23.60;99.90
43695;DHT22;29300;43.560;1.294;2022-10-17T15:21:31;23.60;99.90
43695;DHT22;29300;43.560;1.294;2022-10-17T15:23:57;23.50;99.90
43695;DHT22;29300;43.560;1.294;2022-10-17T15:26:28;23.50;99.90
43695;DHT22;29300;43.560;1.294;2022-10-17T15:28:54;23.50;99.90
43695;DHT22;29300;43.560;1.294;2022-10-17T15:31:22;23.40;99.90
43695;DHT22;29300;43.560;1.294;2022-10-17T15:33:49;23.40;99.90
43695;DHT22;29300;43.560;1.294;2022-10-17T15:36:28;23.30;99.90
43695;DHT22;29300;43.560;1.294;2022-10-17T15:38:56;23.30;99.90
43695;DHT22;29300;43.560;1.294;2022-10-17T15:41:25;23.20;99.90
43695;DHT22;29300;43.560;1.294;2022-10-17T15:43:50;23.20;99.90
43695;DHT22;29300;43.560;1.294;2022-10-17T15:46:20;23.20;99.90
43695;DHT22;29300;43.560;1.294;2022-10-17T15:48:48;23.10;99.90
43695;DHT22;29300;43.560;1.294;2022-10-17T15:51:14;23.10;99.90
43695;DHT22;29300;43.560;1.294;2022-10-17T15:53:40;23.00;99.90
43695;DHT22;29300;43.560;1.294;2022-10-17T15:56:06;22.90;99.90
43695;DHT22;29300;43.560;1.294;2022-10-17T15:58:38;22.90;99.90
43695;DHT22;29300;43.560;1.294;2022-10-17T16:01:05;23.00;99.90
43695;DHT22;29300;43.560;1.294;2022-10-17T16:03:32;23.00;99.90
43695;DHT22;29300;43.560;1.294;2022-10-17T16:05:58;22.90;99.90
43695;DHT22;29300;43.560;1.294;2022-10-17T16:08:24;22.90;99.90
43695;DHT22;29300;43.560;1.294;2022-10-17T16:10:51;22.90;99.90
43695;DHT22;29300;43.560;1.294;2022-10-17T16:13:20;22.90;99.90
43695;DHT22;29300;43.560;1.294;2022-10-17T16:15:46;22.80;99.90
43695;DHT22;29300;43.560;1.294;2022-10-17T16:18:12;22.80;99.90
43695;DHT22;29300;43.560;1.294;2022-10-17T16:20:38;22.70;99.90
43695;DHT22;29300;43.560;1.294;2022-10-17T16:23:04;22.70;99.90
43695;DHT22;29300;43.560;1.294;2022-10-17T16:25:31;22.60;99.90
43695;DHT22;29300;43.560;1.294;2022-10-17T16:27:58;22.50;99.90
43695;DHT22;29300;43.560;1.294;2022-10-17T16:30:25;22.50;99.90
43695;DHT22;29300;43.560;1.294;2022-10-17T16:32:52;22.30;99.90
43695;DHT22;29300;43.560;1.294;2022-10-17T16:35:25;22.20;99.90
43695;DHT22;29300;43.560;1.294;2022-10-17T16:37:51;22.30;99.90
43695;DHT22;29300;43.560;1.294;2022-10-17T16:40:17;22.20;99.90
43695;DHT22;29300;43.560;1.294;2022-10-17T16:42:43;22.20;99.90
43695;DHT22;29300;43.560;1.294;2022-10-17T16:45:18;22.20;99.90
43695;DHT22;29300;43.560;1.294;2022-10-17T16:47:44;22.10;99.90
43695;DHT22;29300;43.560;1.294;2022-10-17T16:50:10;22.10;99.90
43695;DHT22;29300;43.560;1.294;2022-10-17T16:52:35;22.00;99.90
43695;DHT22;29300;43.560;1.294;2022-10-17T16:55:01;21.90;99.90
43695;DHT22;29300;43.560;1.294;2022-10-17T16:57:27;21.90;99.90
43695;DHT22;29300;43.560;1.294;2022-10-17T16:59:53;21.80;99.90
43695;DHT22;29300;43.560;1.294;2022-10-17T17:02:18;21.80;99.90
43695;DHT22;29300;43.560;1.294;2022-10-17T17:04:44;21.70;99.90
43695;DHT22;29300;43.560;1.294;2022-10-17T17:07:10;21.70;99.90
43695;DHT22;29300;43.560;1.294;2022-10-17T17:09:35;21.60;99.90
43695;DHT22;29300;43.560;1.294;2022-10-17T17:12:01;21.60;99.90
43695;DHT22;29300;43.560;1.294;2022-10-17T17:14:27;21.60;99.90
43695;DHT22;29300;43.560;1.294;2022-10-17T17:16:52;21.60;99.90
43695;DHT22;29300;43.560;1.294;2022-10-17T17:19:18;21.60;99.90
43695;DHT22;29300;43.560;1.294;2022-10-17T17:21:45;21.50;99.90
43695;DHT22;29300;43.560;1.294;2022-10-17T17:24:18;21.40;99.90
43695;DHT22;29300;43.560;1.294;2022-10-17T17:26:51;21.40;99.90
43695;DHT22;29300;43.560;1.294;2022-10-17T17:29:17;21.30;99.90
43695;DHT22;29300;43.560;1.294;2022-10-17T17:31:43;21.30;99.90
43695;DHT22;29300;43.560;1.294;2022-10-17T17:34:09;21.30;99.90
43695;DHT22;29300;43.560;1.294;2022-10-17T17:36:35;21.30;99.90
43695;DHT22;29300;43.560;1.294;2022-10-17T17:39:04;21.20;99.90
43695;DHT22;29300;43.560;1.294;2022-10-17T17:41:30;21.20;99.90
43695;DHT22;29300;43.560;1.294;2022-10-17T17:43:56;21.10;99.90
43695;DHT22;29300;43.560;1.294;2022-10-17T17:46:22;21.10;99.90
43695;DHT22;29300;43.560;1.294;2022-10-17T17:48:49;21.10;99.90
43695;DHT22;29300;43.560;1.294;2022-10-17T17:51:18;21.10;99.90
43695;DHT22;29300;43.560;1.294;2022-10-17T17:53:44;21.00;99.90